Weather reports worldwide

Advertisment
Oberstdorf, Germany (10948): temperature & dewpoint: 10.11.2018 05:00:00 - 16.11.2018 05:00:00 (CET)Oberstdorf, Germany (10948): temperature 5cm & temperature -5cm: 10.11.2018 05:00:00 - 16.11.2018 05:00:00 (CET)Oberstdorf, Germany (10948): temperature -20cm & temperature -100cm: 10.11.2018 05:00:00 - 16.11.2018 05:00:00 (CET)Oberstdorf, Germany (10948): wind speed & gusts: 10.11.2018 05:00:00 - 16.11.2018 05:00:00 (CET)Oberstdorf, Germany (10948): wind direction: 10.11.2018 05:00:00 - 16.11.2018 05:00:00 (CET)Oberstdorf, Germany (10948): visibility: 10.11.2018 05:00:00 - 16.11.2018 05:00:00 (CET)Oberstdorf, Germany (10948): sunshine duration: 10.11.2018 05:00:00 - 16.11.2018 05:00:00 (CET)Oberstdorf, Germany (10948): precipitation: 10.11.2018 05:00:00 - 16.11.2018 05:00:00 (CET)
Date & Time tt [°C] td [°C] tt 5cm [°C] tt -5cm [°C] tt -20cm [°C] tt -100cm [°C] ff [km/h] ff [kn] fx [km/h] fx [kn] dd vv [km] sd [min] rr [mm]
16.11.2018 05:00:00 -1,8 -2,1 -1,3 5,5 6,8 9,6 2 1 7 4 SW 0,6 0 0,0
16.11.2018 04:00:00 -1,5 -1,7 -0,7 5,6 6,8 9,6 5 3 7 4 SSW 0,3 0 0,0
16.11.2018 03:00:00 -1,4 -1,5 -0,8 5,7 6,8 9,6 4 2 8 4 ESE 0,3 0 0,0
16.11.2018 02:00:00 -1,0 -1,3 -0,3 5,7 6,8 9,6 3 1 6 4 E 0,2 0 0,0
16.11.2018 01:00:00 -0,6 -0,8 -0,1 5,8 6,9 9,6 3 2 6 4 NE 0,8 0 0,0
16.11.2018 00:00:00 -0,1 -0,3 0,4 5,8 6,9 9,6 0 0 8 4 N 0,2 0 0,0
15.11.2018 23:00:00 0,3 0,2 0,7 5,9 6,9 9,6 3 2 8 4 SE 0,1 0 0,0
15.11.2018 22:00:00 0,5 0,2 1,0 5,9 6,9 9,6 5 3 6 4 E 0,3 0 0,0
15.11.2018 21:00:00 0,9 0,5 1,4 5,9 6,8 9,6 3 2 9 5 SE 9 0 0,0
15.11.2018 20:00:00 1,4 1,1 1,8 5,9 6,8 9,7 4 2 8 5 SSE 0,9 0 0,0
15.11.2018 19:00:00 1,6 1,3 2,0 5,9 6,8 9,7 4 2 8 5 N 0,3 0 0,0
15.11.2018 18:00:00 1,8 1,6 2,2 5,9 6,8 9,7 4 2 8 4 NE 0,2 0 0,0
15.11.2018 17:00:00 2,2 1,8 2,7 5,8 6,7 9,7 0 0 10 6 N 1,1 0 0,0
15.11.2018 16:00:00 2,5 1,6 2,0 5,6 6,7 9,7 9 5 11 6 NNE 12 17 0,0
15.11.2018 15:00:00 5,1 1,4 6,8 5,3 6,8 9,7 5 3 15 8 NNE 32 60 0,0
15.11.2018 14:00:00 5,5 1,8 6,3 5,0 6,8 9,7 10 6 14 8 N 45 60 0,0
15.11.2018 13:00:00 6,3 1,1 10,6 4,9 6,9 9,7 5 3 9 5 WNW 55 60 0,0
15.11.2018 12:00:00 5,2 -0,4 8,6 4,9 7,0 9,7 3 1 12 7 NW 50 60 0,0
15.11.2018 11:00:00 1,7 -1,2 5,0 5,0 7,1 9,7 4 2 11 6 NW 49 60 0,0
15.11.2018 10:00:00 0,4 -2,7 2,0 5,2 7,2 9,7 0 0 6 3 N 32 60 0,0
15.11.2018 09:00:00 -3,4 -4,0 -3,6 5,3 7,3 9,7 0 0 4 2 N 42 1 0,0
15.11.2018 08:00:00 -5,1 -6,1 -5,9 5,5 7,4 9,7 3 2 5 3 S 21 0 0,0
15.11.2018 07:00:00 -4,2 -4,7 -6,6 5,6 7,4 9,7 3 2 4 2 WNW 0,2 0 0,0
15.11.2018 06:00:00 -3,7 -4,3 -6,7 5,8 7,5 9,7 3 1 5 3 S 70 0 0,0
15.11.2018 05:00:00 -3,1 -3,4 -5,8 6,0 7,6 9,7 3 2 6 3 S 0,4 0 0,0
15.11.2018 04:00:00 -3,8 -4,5 -6,1 6,2 7,7 9,7 2 1 3 2 SSW 6 0 0,0
15.11.2018 03:00:00 -2,4 -3,0 -4,8 6,4 7,8 9,7 2 1 9 5 NNE 70 0 0,0
15.11.2018 02:00:00 -2,5 -3,1 -4,5 6,6 7,8 9,7 5 3 8 5 SSE 70 0 0,0
15.11.2018 01:00:00 -1,5 -1,7 -4,8 6,8 7,9 9,7 0 0 5 3 N 20 0 0,0
15.11.2018 00:00:00 -1,2 -2,1 -2,9 7,0 7,9 9,7 3 2 9 5 SSE 70 0 0,0
14.11.2018 23:00:00 -1,7 -2,7 -3,0 7,2 8,0 9,7 5 3 6 4 SSE 70 0 0,0
14.11.2018 22:00:00 0,0 -0,8 -2,7 7,5 8,0 9,7 3 2 10 5 S 42 0 0,0
14.11.2018 21:00:00 0,6 -0,8 -1,9 7,7 7,9 9,8 0 0 10 5 N 54 0 0,0
14.11.2018 20:00:00 2,1 1,2 -0,9 7,9 7,9 9,8 4 2 15 8 SE 49 0 0,0
14.11.2018 19:00:00 2,8 1,8 -0,6 8,0 7,8 9,8 6 3 11 6 SSE 69 0 0,0
14.11.2018 18:00:00 3,6 2,0 1,5 8,1 7,7 9,8 8 5 12 6 SE 70 0 0,0
14.11.2018 17:00:00 5,6 3,6 3,3 8,0 7,6 9,8 11 6 14 7 S 70 0 0,0
14.11.2018 16:00:00 6,9 4,3 5,6 7,7 7,5 9,8 9 5 10 5 SSE 70 18 0,0
14.11.2018 15:00:00 10,6 5,9 13,8 7,3 7,5 9,8 6 3 8 4 SW 70 60 0,0
14.11.2018 14:00:00 12,3 5,2 15,8 6,9 7,5 9,8 5 3 10 5 SSW 70 60 0,0
14.11.2018 13:00:00 11,3 5,3 15,4 6,6 7,5 9,8 3 1 7 4 S 70 60 0,0
14.11.2018 12:00:00 9,6 4,8 11,9 6,3 7,5 9,8 4 2 8 4 S 58 60 0,0
14.11.2018 11:00:00 8,0 4,6 10,9 6,2 7,6 9,8 2 1 8 4 SSW 70 58 0,0
14.11.2018 10:00:00 5,3 3,2 8,2 6,3 7,6 9,8 3 2 10 6 ESE 70 60 0,0
14.11.2018 09:00:00 0,3 0,2 0,1 6,4 7,7 9,8 5 3 7 4 SSE 0,2 1 0,0
14.11.2018 08:00:00 -0,3 -0,9 -0,8 6,5 7,7 9,8 2 1 9 5 SSE 3,1 0 0,0
14.11.2018 07:00:00 0,9 0,5 0,0 6,7 7,8 9,8 4 2 6 3 SSE 70 0 0,0
14.11.2018 06:00:00 1,3 1,1 0,7 6,8 7,8 9,8 2 1 7 4 ENE 0,9 0 0,0
14.11.2018 05:00:00 1,4 1,2 1,5 6,9 7,8 9,8 4 2 6 4 S 0,5 0 0,0
14.11.2018 04:00:00 0,9 0,8 -0,3 7,0 7,9 9,8 3 1 4 2 S 0,3 0 0,0
14.11.2018 03:00:00 2,5 2,4 1,0 7,1 7,9 9,8 0 0 4 2 N 0,2 0 0,0
14.11.2018 02:00:00 3,4 3,3 3,0 7,2 7,9 9,8 3 1 5 3 WSW 0,2 0 0,0
14.11.2018 01:00:00 3,6 3,6 3,3 7,3 7,9 9,8 2 1 5 3 ESE 0,7 0 0,0
14.11.2018 00:00:00 4,0 4,0 2,3 7,4 7,9 9,8 5 3 8 4 SSE 0,4 0 0,0
13.11.2018 23:00:00 3,1 2,3 2,7 7,4 7,9 9,9 3 1 5 3 NW 0,1 0 0,0
13.11.2018 22:00:00 4,8 4,5 3,9 7,5 7,8 9,9 3 1 8 4 N 1,0 0 0,0
13.11.2018 21:00:00 5,8 5,6 4,5 7,5 7,8 9,9 3 2 6 4 S 10 0 0,0
13.11.2018 20:00:00 5,8 5,2 5,0 7,5 7,8 9,9 3 2 8 5 ESE 56 0 0,1
13.11.2018 19:00:00 7,4 6,5 6,8 7,5 7,7 9,9 6 3 10 6 SSW 28 0 0,1
13.11.2018 18:00:00 7,9 6,3 7,2 7,5 7,7 9,9 12 6 22 12 SSW 70 0 0,3
13.11.2018 17:00:00 8,2 6,2 7,3 7,4 7,6 9,9 13 7 17 9 SSE 8 0 0,1
13.11.2018 16:00:00 8,8 5,5 8,4 7,3 7,6 9,9 10 6 21 11 SSE 70 0 0,0
13.11.2018 15:00:00 9,3 5,0 8,9 7,2 7,5 9,9 14 7 22 12 WNW 70 0 0,0
13.11.2018 14:00:00 9,4 5,4 9,1 7,0 7,5 9,9 9 5 27 14 W 70 0 0,0
13.11.2018 13:00:00 9,3 6,5 9,3 6,7 7,5 9,9 21 11 46 25 W 38 4 0,0
13.11.2018 12:00:00 11,2 6,7 11,6 6,4 7,5 9,9 24 13 46 25 WNW 53 3 0,0
13.11.2018 11:00:00 14,0 5,7 14,8 6,1 7,6 9,9 3 2 16 9 SSE 70 36 0,0
13.11.2018 10:00:00 11,4 4,9 14,0 6,1 7,6 9,9 13 7 17 9 SSE 70 60 0,0
13.11.2018 09:00:00 6,4 4,4 6,1 6,1 7,7 9,9 6 4 13 7 S 70 2 0,0
13.11.2018 08:00:00 3,8 2,1 0,5 6,3 7,8 9,9 3 2 12 7 E 70 0 0,0
13.11.2018 07:00:00 3,4 2,1 0,9 6,4 7,8 9,9 3 1 21 11 SE 70 0 0,0
13.11.2018 06:00:00 2,3 1,3 -0,3 6,5 7,9 9,9 5 3 10 5 ESE 70 0 0,0
13.11.2018 05:00:00 2,1 1,2 -0,3 6,7 8,0 9,9 4 2 8 4 S 70 0 0,0
13.11.2018 04:00:00 2,2 1,3 -0,6 6,8 8,0 9,9 4 2 10 5 S 70 0 0,0
13.11.2018 03:00:00 3,7 3,6 1,0 7,0 8,1 9,9 4 2 10 5 S 70 0 0,0
13.11.2018 02:00:00 2,8 1,9 0,3 7,2 8,1 9,9 6 3 10 6 S 70 0 0,0
13.11.2018 01:00:00 3,7 3,1 0,4 7,4 8,1 10,0 5 3 8 5 ESE 70 0 0,0
13.11.2018 00:00:00 2,3 1,5 -0,1 7,5 8,1 10,0 4 2 9 5 S 70 0 0,0
12.11.2018 23:00:00 2,4 1,6 1,0 7,7 8,1 10,0 5 3 11 6 SSE 51 0 0,0
12.11.2018 22:00:00 3,4 2,7 1,3 7,9 8,1 10,0 8 4 9 5 SSE 70 0 0,0
12.11.2018 21:00:00 4,6 3,1 1,0 8,0 8,0 10,0 3 2 9 5 ESE 70 0 0,0
12.11.2018 20:00:00 6,3 4,7 2,4 8,1 8,0 10,0 8 5 14 7 SSE 70 0 0,0
12.11.2018 19:00:00 7,5 4,9 4,6 8,2 7,9 10,0 8 5 14 7 SSE 56 0 0,0
12.11.2018 18:00:00 8,5 5,4 5,0 8,2 7,7 10,0 8 4 13 7 SSE 70 0 0,0
12.11.2018 17:00:00 9,8 5,7 7,0 8,0 7,6 10,0 9 5 13 7 SSE 70 0 0,0
12.11.2018 16:00:00 11,6 6,5 9,1 7,7 7,5 10,0 8 5 23 12 S 70 19 0,0
12.11.2018 15:00:00 18,7 5,0 18,6 7,2 7,5 10,0 10 6 20 11 NNW 70 60 0,0
12.11.2018 14:00:00 19,2 6,3 21,5 6,8 7,5 10,0 3 2 11 6 SW 70 58 0,0
12.11.2018 13:00:00 17,6 6,3 19,0 6,3 7,5 10,0 8 4 19 10 NNE 58 60 0,0
12.11.2018 12:00:00 16,8 7,0 18,2 6,0 7,5 10,0 7 4 12 7 NNW 68 60 0,0
12.11.2018 11:00:00 13,7 7,4 15,4 5,9 7,6 10,0 3 2 14 8 NE 70 56 0,0
12.11.2018 10:00:00 9,9 5,6 10,7 5,9 7,7 10,0 2 1 7 4 SSE 70 60 0,0
12.11.2018 09:00:00 1,9 1,2 0,1 6,1 7,8 10,0 5 3 10 5 SSE 45 3 0,0
12.11.2018 08:00:00 0,6 -0,1 -0,7 6,2 7,9 10,0 4 2 11 6 SSE 42 0 0,0
12.11.2018 07:00:00 0,5 0,2 -1,6 6,3 8,0 10,0 5 3 9 5 SSE 70 0 0,0
12.11.2018 06:00:00 0,8 0,5 -1,3 6,5 8,0 10,0 3 2 10 5 SW 31 0 0,0
12.11.2018 05:00:00 0,5 0,0 -1,8 6,7 8,1 10,0 4 2 10 5 SE 49 0 0,0
12.11.2018 04:00:00 1,0 0,5 -1,3 6,9 8,2 10,0 5 3 11 6 SSE 70 0 0,0
12.11.2018 03:00:00 1,6 1,5 -0,5 7,1 8,3 10,0 8 4 10 6 SSE 49 0 0,0
12.11.2018 02:00:00 1,4 1,2 -1,5 7,3 8,3 10,1 3 2 7 4 SE 45 0 0,0
12.11.2018 01:00:00 1,6 1,6 -1,1 7,5 8,4 10,1 5 3 11 6 SSW 0,3 0 0,0
12.11.2018 00:00:00 2,6 2,2 0,1 7,7 8,4 10,1 5 3 9 5 SE 61 0 0,0
11.11.2018 23:00:00 2,5 1,9 0,2 7,9 8,4 10,1 2 1 11 6 E 33 0 0,0
11.11.2018 22:00:00 3,8 3,2 1,4 8,1 8,4 10,1 7 4 12 7 SSE 52 0 0,0
11.11.2018 21:00:00 3,1 2,7 1,4 8,3 8,3 10,1 3 1 11 6 SSE 45 0 0,0
11.11.2018 20:00:00 3,3 2,5 0,5 8,4 8,3 10,1 6 3 10 5 SSE 48 0 0,0
11.11.2018 19:00:00 4,3 3,6 1,8 8,6 8,2 10,1 6 3 14 7 SSW 36 0 0,0
11.11.2018 18:00:00 6,5 4,5 4,2 8,6 8,1 10,1 9 5 14 8 S 70 0 0,0
11.11.2018 17:00:00 9,1 5,8 7,0 8,5 8,0 10,1 11 6 14 8 SSE 70 0 0,0
11.11.2018 16:00:00 10,2 6,5 7,8 8,3 7,9 10,1 6 4 15 8 S 70 20 0,0
11.11.2018 15:00:00 14,7 6,8 15,2 8,0 7,8 10,1 11 6 19 10 N 56 60 0,0
11.11.2018 14:00:00 14,9 6,2 15,7 7,6 7,7 10,1 14 7 19 11 N 37 60 0,0
11.11.2018 13:00:00 14,4 6,0 16,1 7,2 7,7 10,1 10 5 18 10 N 39 60 0,0
11.11.2018 12:00:00 14,6 5,6 16,9 6,9 7,7 10,1 5 3 13 7 NNW 70 60 0,0
11.11.2018 11:00:00 12,9 6,0 15,4 6,7 7,7 10,2 4 2 9 5 NW 62 47 0,0
11.11.2018 10:00:00 8,8 6,4 9,2 6,7 7,8 10,2 4 2 8 4 WSW 63 8 0,0
11.11.2018 09:00:00 6,9 5,8 6,7 6,7 7,8 10,2 2 1 10 5 SE 61 0 0,0
11.11.2018 08:00:00 6,7 4,9 5,3 6,7 7,8 10,2 6 4 10 5 SSE 70 0 0,0
11.11.2018 07:00:00 6,1 4,6 4,7 6,7 7,8 10,2 3 2 10 5 SW 64 0 0,0
11.11.2018 06:00:00 5,2 3,7 2,6 6,7 7,9 10,2 6 4 23 12 WNW 58 0 0,0
11.11.2018 05:00:00 6,8 4,8 5,0 6,7 7,9 10,2 10 6 18 10 S 59 0 0,0
11.11.2018 04:00:00 6,2 4,7 5,1 6,8 7,9 10,2 5 3 18 10 SSW 70 0 0,0
11.11.2018 03:00:00 5,4 4,5 4,4 6,9 8,0 10,2 13 7 18 10 SSE 61 0 0,0
11.11.2018 02:00:00 4,3 3,5 3,3 6,9 8,0 10,2 2 1 9 5 WNW 32 0 0,0
11.11.2018 01:00:00 4,3 3,2 3,2 7,0 8,1 10,2 4 2 13 7 E 40 0 0,0
11.11.2018 00:00:00 3,6 3,0 1,8 7,1 8,1 10,2 4 2 9 5 SSE 29 0 0,0
10.11.2018 23:00:00 3,5 2,7 2,3 7,3 8,1 10,3 0 0 9 5 N 26 0 0,0
10.11.2018 22:00:00 3,0 2,6 2,0 7,5 8,1 10,3 3 2 11 6 N 38 0 0,0
10.11.2018 21:00:00 1,4 0,4 -0,5 7,6 8,1 10,3 4 2 9 5 SSE 26 0 0,0
10.11.2018 20:00:00 3,8 2,8 0,6 7,8 8,0 10,3 4 2 11 6 ESE 34 0 0,0
10.11.2018 19:00:00 3,2 1,7 0,2 7,9 7,9 10,3 2 1 9 5 WNW 47 0 0,0
10.11.2018 18:00:00 6,0 3,8 2,5 7,9 7,8 10,3 6 4 12 7 SSE 65 0 0,0
10.11.2018 17:00:00 6,9 4,6 4,1 7,7 7,7 10,3 6 4 11 6 SSE 70 0 0,0
10.11.2018 16:00:00 9,6 5,1 7,3 7,4 7,7 10,3 6 3 20 11 S 55 28 0,0
10.11.2018 15:00:00 15,3 5,8 15,6 7,1 7,6 10,3 12 6 19 10 N 39 58 0,0
10.11.2018 14:00:00 15,9 5,1 16,6 6,6 7,6 10,3 12 7 21 11 N 33 60 0,0
10.11.2018 13:00:00 15,6 3,5 16,7 6,2 7,7 10,3 7 4 16 9 NNW 69 60 0,0
10.11.2018 12:00:00 14,2 4,6 15,4 6,0 7,7 10,3 10 6 16 9 N 59 60 0,0
10.11.2018 11:00:00 12,6 3,5 14,3 5,9 7,8 10,3 5 3 9 5 NNE 59 60 0,0
10.11.2018 10:00:00 8,1 3,7 10,3 6,0 7,9 10,3 3 2 6 3 WNW 62 60 0,0
10.11.2018 09:00:00 0,6 0,0 0,1 6,1 8,0 10,3 4 2 7 4 S 70 5 0,0
10.11.2018 08:00:00 -0,3 -0,5 -2,4 6,3 8,1 10,3 3 2 7 4 S 70 0 0,0
10.11.2018 07:00:00 -0,4 -0,6 -3,0 6,4 8,2 10,3 3 2 6 3 SSE 25 0 0,0
10.11.2018 06:00:00 -0,5 -0,8 -3,1 6,6 8,3 10,4 3 1 6 3 S 53 0 0,0
10.11.2018 05:00:00 -0,4 -0,8 -2,7 6,8 8,3 10,4 2 1 6 3 SE 60 0 0,0

tt = temperature
td = dewpoint
tt 5cm = temperature 5cm
tt -5cm = temperature -5cm
tt -20cm = temperature -20cm
tt -100cm = temperature -100cm
ff = wind speed
fx = gusts
dd = wind direction
vv = visibility
sd = sunshine duration
rr = precipitation

Next stations